Time;durP1;ratioP1;P1;durP2;ratioP2;P2;SDS_P1;SDS_P2;PMS_P1;PMS_P2;Temp;Humidity;BMP_temperature;BMP_pressure;BME280_temperature;BME280_humidity;BME280_pressure;Samples;Min_cycle;Max_cycle;Signal;HPM_P1;HPM_P2
2022/09/25 00:00:22;;;;;;;0.40;0.40;;;;;;;;;;5043946;28;20412;-60
2022/09/25 00:02:47;;;;;;;0.28;0.28;;;;;;;;;;5060241;28;20562;-59
2022/09/25 00:05:12;;;;;;;0.70;0.40;;;;;;;;;;5061500;28;20428;-59
2022/09/25 00:07:37;;;;;;;0.40;0.30;;;;;;;;;;5063222;28;20333;-61
2022/09/25 00:10:03;;;;;;;0.50;0.40;;;;;;;;;;5042955;28;20494;-59
2022/09/25 00:12:28;;;;;;;0.30;0.30;;;;;;;;;;5049133;28;20064;-59
2022/09/25 00:14:54;;;;;;;0.40;0.40;;;;;;;;;;5070208;28;20853;-61
2022/09/25 00:17:19;;;;;;;0.25;0.25;;;;;;;;;;5056427;28;20061;-61
2022/09/25 00:19:50;;;;;;;0.30;0.30;;;;;;;;;;5049789;28;20071;-61
2022/09/25 00:22:16;;;;;;;0.30;0.30;;;;;;;;;;5050120;28;20067;-58
2022/09/25 00:24:42;;;;;;;0.80;0.30;;;;;;;;;;5054076;28;20520;-61
2022/09/25 00:27:07;;;;;;;0.30;0.30;;;;;;;;;;5067756;28;20056;-61
2022/09/25 00:29:35;;;;;;;0.25;0.25;;;;;;;;;;5069410;28;20295;-61
2022/09/25 00:32:02;;;;;;;0.25;0.17;;;;;;;;;;5061416;28;20081;-62
2022/09/25 00:34:28;;;;;;;0.25;0.25;;;;;;;;;;5058441;28;20118;-61
2022/09/25 00:36:53;;;;;;;0.20;0.20;;;;;;;;;;5067954;28;20516;-59
2022/09/25 00:39:18;;;;;;;0.23;0.23;;;;;;;;;;5041514;28;20040;-61
2022/09/25 00:41:44;;;;;;;0.38;0.38;;;;;;;;;;5055251;28;20778;-61
2022/09/25 00:44:28;;;;;;;0.40;0.20;;;;;;;;;;5066368;28;20140;-60
2022/09/25 00:46:53;;;;;;;0.65;0.40;;;;;;;;;;5063646;28;20045;-59
2022/09/25 00:49:21;;;;;;;0.30;0.30;;;;;;;;;;5046738;28;20037;-61
2022/09/25 00:51:52;;;;;;;0.30;0.30;;;;;;;;;;5050469;28;20041;-61
2022/09/25 00:54:22;;;;;;;0.38;0.30;;;;;;;;;;5065338;28;20037;-59
2022/09/25 00:56:49;;;;;;;0.30;0.30;;;;;;;;;;5069719;28;20047;-60
2022/09/25 00:59:16;;;;;;;0.30;0.30;;;;;;;;;;5052496;28;20044;-59
2022/09/25 01:01:42;;;;;;;0.40;0.30;;;;;;;;;;5055547;28;20063;-59
2022/09/25 01:04:08;;;;;;;0.20;0.20;;;;;;;;;;5048192;28;20037;-58
2022/09/25 01:06:34;;;;;;;0.28;0.22;;;;;;;;;;5045655;28;20041;-58
2022/09/25 01:08:59;;;;;;;0.20;0.20;;;;;;;;;;5074948;28;20051;-60
2022/09/25 01:11:25;;;;;;;0.32;0.32;;;;;;;;;;5089568;28;20055;-60
2022/09/25 01:13:52;;;;;;;0.27;0.27;;;;;;;;;;5085046;28;20036;-58
2022/09/25 01:16:23;;;;;;;0.47;0.30;;;;;;;;;;5067781;28;20286;-61
2022/09/25 01:18:48;;;;;;;0.20;0.20;;;;;;;;;;5066782;28;20059;-60
2022/09/25 01:21:30;;;;;;;0.30;0.30;;;;;;;;;;5086004;28;20408;-60
2022/09/25 01:24:05;;;;;;;0.35;0.32;;;;;;;;;;5089055;28;20040;-58
2022/09/25 01:26:39;;;;;;;0.40;0.30;;;;;;;;;;5066580;28;20101;-58
2022/09/25 01:29:07;;;;;;;0.25;0.25;;;;;;;;;;5073950;28;20044;-61
2022/09/25 01:31:32;;;;;;;0.30;0.30;;;;;;;;;;5070941;28;20147;-60
2022/09/25 01:34:01;;;;;;;0.30;0.30;;;;;;;;;;5070870;28;20607;-61
2022/09/25 01:36:28;;;;;;;0.40;0.40;;;;;;;;;;5077260;28;20087;-60
2022/09/25 01:39:09;;;;;;;0.30;0.30;;;;;;;;;;5080455;28;20040;-58
2022/09/25 01:41:40;;;;;;;0.22;0.22;;;;;;;;;;5067549;28;20120;-60
2022/09/25 01:44:07;;;;;;;0.43;0.32;;;;;;;;;;5083503;28;20033;-61
2022/09/25 01:46:34;;;;;;;0.30;0.30;;;;;;;;;;5084019;28;20103;-61
2022/09/25 01:49:04;;;;;;;0.20;0.20;;;;;;;;;;5075704;28;20406;-58
2022/09/25 01:51:42;;;;;;;0.20;0.20;;;;;;;;;;5068678;28;20063;-60
2022/09/25 01:54:10;;;;;;;0.28;0.28;;;;;;;;;;5085144;28;20580;-60
2022/09/25 01:56:55;;;;;;;0.20;0.20;;;;;;;;;;5077250;28;20041;-59
2022/09/25 01:59:50;;;;;;;0.40;0.30;;;;;;;;;;5046982;28;20415;-58
2022/09/25 02:02:19;;;;;;;0.28;0.20;;;;;;;;;;5060156;28;20048;-59
2022/09/25 02:04:50;;;;;;;0.38;0.30;;;;;;;;;;5072141;28;20420;-59
2022/09/25 02:07:21;;;;;;;0.20;0.20;;;;;;;;;;5070538;28;20116;-62
2022/09/25 02:09:49;;;;;;;0.30;0.30;;;;;;;;;;5082457;28;21452;-60
2022/09/25 02:12:17;;;;;;;0.25;0.20;;;;;;;;;;5082042;28;20040;-61
2022/09/25 02:14:53;;;;;;;0.35;0.35;;;;;;;;;;5080429;28;20040;-61
2022/09/25 02:20:31;;;;;;;0.13;0.13;;;;;;;;;;5006516;28;20501;-59
2022/09/25 02:23:00;;;;;;;0.45;0.20;;;;;;;;;;4999058;28;20046;-59
2022/09/25 02:25:36;;;;;;;0.20;0.20;;;;;;;;;;4998913;28;20042;-61
2022/09/25 02:28:01;;;;;;;0.20;0.20;;;;;;;;;;5006078;28;20058;-61
2022/09/25 02:30:26;;;;;;;0.10;0.10;;;;;;;;;;5002078;28;20566;-58
2022/09/25 02:32:53;;;;;;;0.10;0.10;;;;;;;;;;4999176;28;20049;-59
2022/09/25 02:35:18;;;;;;;0.10;0.10;;;;;;;;;;4992360;28;20522;-59
2022/09/25 02:37:44;;;;;;;0.10;0.10;;;;;;;;;;5003097;28;20136;-58
2022/09/25 02:40:13;;;;;;;0.20;0.20;;;;;;;;;;5002319;28;20088;-59
2022/09/25 02:42:41;;;;;;;0.30;0.30;;;;;;;;;;4990438;28;20292;-59
2022/09/25 02:45:16;;;;;;;0.20;0.20;;;;;;;;;;4997531;28;20077;-59
2022/09/25 02:47:44;;;;;;;0.20;0.20;;;;;;;;;;4997090;28;20042;-61
2022/09/25 02:50:15;;;;;;;0.10;0.10;;;;;;;;;;5006332;28;20117;-61
2022/09/25 02:52:55;;;;;;;0.40;0.20;;;;;;;;;;5002886;28;20056;-61
2022/09/25 02:55:28;;;;;;;0.20;0.20;;;;;;;;;;4996186;28;20046;-59
2022/09/25 02:57:54;;;;;;;0.17;0.17;;;;;;;;;;5064158;28;20105;-61
2022/09/25 03:00:22;;;;;;;0.30;0.30;;;;;;;;;;5088317;28;20036;-61
2022/09/25 03:02:48;;;;;;;0.10;0.10;;;;;;;;;;5071644;28;20049;-61
2022/09/25 03:05:14;;;;;;;0.17;0.17;;;;;;;;;;5088454;28;20397;-59
2022/09/25 03:10:24;;;;;;;0.10;0.10;;;;;;;;;;5066218;28;20067;-57
2022/09/25 03:12:50;;;;;;;0.30;0.30;;;;;;;;;;5072309;28;20048;-59
2022/09/25 03:15:15;;;;;;;2.13;0.20;;;;;;;;;;5079344;28;20447;-57
2022/09/25 03:17:41;;;;;;;0.30;0.20;;;;;;;;;;5078129;28;20083;-60
2022/09/25 03:20:11;;;;;;;0.40;0.40;;;;;;;;;;5074218;28;20094;-60
2022/09/25 03:22:36;;;;;;;0.20;0.20;;;;;;;;;;5076211;28;20407;-59
2022/09/25 03:25:03;;;;;;;0.27;0.27;;;;;;;;;;5077397;28;20555;-60
2022/09/25 03:27:28;;;;;;;0.20;0.20;;;;;;;;;;5078026;28;20824;-61
2022/09/25 03:29:54;;;;;;;0.20;0.20;;;;;;;;;;5078247;28;20068;-59
2022/09/25 03:32:19;;;;;;;0.20;0.20;;;;;;;;;;5079631;28;20079;-58
2022/09/25 03:34:45;;;;;;;0.10;0.10;;;;;;;;;;5075353;28;20083;-59
2022/09/25 03:37:10;;;;;;;0.20;0.20;;;;;;;;;;5085001;28;20040;-59
2022/09/25 03:39:35;;;;;;;0.20;0.20;;;;;;;;;;5075214;28;20087;-59
2022/09/25 03:42:00;;;;;;;0.20;0.20;;;;;;;;;;5080914;28;20705;-61
2022/09/25 03:44:25;;;;;;;0.30;0.20;;;;;;;;;;5086760;28;20048;-61
2022/09/25 03:46:51;;;;;;;0.30;0.20;;;;;;;;;;5077737;28;20075;-61
2022/09/25 03:49:16;;;;;;;0.20;0.20;;;;;;;;;;5081282;28;20063;-61
2022/09/25 03:51:41;;;;;;;0.20;0.20;;;;;;;;;;5076887;28;20324;-59
2022/09/25 03:54:06;;;;;;;0.20;0.20;;;;;;;;;;5086542;28;20068;-59
2022/09/25 03:56:32;;;;;;;0.20;0.20;;;;;;;;;;5088743;28;20052;-61
2022/09/25 03:58:57;;;;;;;0.10;0.10;;;;;;;;;;5080851;28;20298;-59
2022/09/25 04:01:23;;;;;;;0.20;0.20;;;;;;;;;;5088320;28;20047;-59
2022/09/25 04:03:49;;;;;;;0.20;0.17;;;;;;;;;;5089061;28;20051;-61
2022/09/25 04:06:17;;;;;;;0.20;0.20;;;;;;;;;;5085349;28;20449;-60
2022/09/25 04:08:42;;;;;;;0.20;0.20;;;;;;;;;;5081448;28;20043;-58
2022/09/25 04:11:08;;;;;;;0.20;0.20;;;;;;;;;;5087198;28;20039;-59
2022/09/25 04:13:35;;;;;;;0.23;0.20;;;;;;;;;;5078711;28;20410;-61
2022/09/25 04:16:01;;;;;;;0.13;0.13;;;;;;;;;;5088531;28;20113;-61
2022/09/25 04:18:30;;;;;;;0.28;0.20;;;;;;;;;;5078830;28;20032;-61
2022/09/25 04:20:59;;;;;;;0.40;0.22;;;;;;;;;;5083329;28;20458;-57
2022/09/25 04:23:24;;;;;;;0.10;0.10;;;;;;;;;;5071773;28;20044;-56
2022/09/25 04:25:50;;;;;;;0.40;0.20;;;;;;;;;;5083142;28;20048;-60
2022/09/25 04:28:16;;;;;;;0.30;0.20;;;;;;;;;;5062074;28;20053;-60
2022/09/25 04:30:41;;;;;;;0.25;0.25;;;;;;;;;;5081624;28;20032;-60
2022/09/25 04:35:52;;;;;;;0.20;0.20;;;;;;;;;;5074950;28;20874;-58
2022/09/25 04:38:17;;;;;;;0.15;0.15;;;;;;;;;;5087400;28;20041;-58
2022/09/25 04:40:44;;;;;;;0.20;0.20;;;;;;;;;;5072356;28;20048;-60
2022/09/25 04:43:10;;;;;;;0.20;0.20;;;;;;;;;;5079285;28;20132;-58
2022/09/25 04:45:36;;;;;;;0.13;0.13;;;;;;;;;;5082598;28;20138;-60
2022/09/25 04:48:02;;;;;;;0.20;0.20;;;;;;;;;;5087640;28;20131;-58
2022/09/25 04:50:27;;;;;;;0.10;0.10;;;;;;;;;;5081023;28;20045;-60
2022/09/25 04:52:53;;;;;;;0.20;0.20;;;;;;;;;;5081581;28;20054;-58
2022/09/25 04:55:20;;;;;;;0.20;0.20;;;;;;;;;;5082567;28;20051;-58
2022/09/25 04:57:49;;;;;;;0.20;0.20;;;;;;;;;;5069405;28;20099;-58
2022/09/25 05:00:17;;;;;;;0.38;0.20;;;;;;;;;;5067140;28;20471;-58
2022/09/25 05:02:44;;;;;;;0.10;0.10;;;;;;;;;;5071828;28;20444;-60
2022/09/25 05:05:09;;;;;;;0.20;0.20;;;;;;;;;;5087878;28;20484;-60
2022/09/25 05:07:34;;;;;;;0.20;0.20;;;;;;;;;;5085039;28;20087;-60
2022/09/25 05:10:00;;;;;;;0.30;0.30;;;;;;;;;;5076126;28;20116;-58
2022/09/25 05:12:25;;;;;;;0.20;0.20;;;;;;;;;;5087629;28;20063;-58
2022/09/25 05:14:51;;;;;;;0.10;0.10;;;;;;;;;;5085702;28;20692;-60
2022/09/25 05:17:16;;;;;;;0.20;0.20;;;;;;;;;;5090364;28;20067;-60
2022/09/25 05:19:41;;;;;;;0.43;0.20;;;;;;;;;;5081266;28;20071;-60
2022/09/25 05:22:06;;;;;;;0.10;0.10;;;;;;;;;;5083678;28;20048;-61
2022/09/25 05:24:32;;;;;;;0.20;0.20;;;;;;;;;;5073933;28;20452;-61
2022/09/25 05:26:57;;;;;;;0.17;0.17;;;;;;;;;;5080104;28;20071;-58
2022/09/25 05:29:23;;;;;;;0.10;0.10;;;;;;;;;;5067304;28;20492;-59
2022/09/25 05:31:49;;;;;;;0.25;0.20;;;;;;;;;;5081301;28;20033;-59
2022/09/25 05:34:16;;;;;;;0.10;0.10;;;;;;;;;;5089395;28;20534;-59
2022/09/25 05:36:42;;;;;;;0.20;0.20;;;;;;;;;;5073711;28;20040;-59
2022/09/25 05:39:10;;;;;;;0.23;0.20;;;;;;;;;;5084905;28;20032;-61
2022/09/25 05:41:35;;;;;;;0.22;0.20;;;;;;;;;;5070661;28;20336;-59
2022/09/25 05:44:05;;;;;;;0.30;0.30;;;;;;;;;;5083654;28;20123;-59
2022/09/25 05:46:31;;;;;;;0.20;0.20;;;;;;;;;;5088804;28;20526;-60
2022/09/25 05:48:56;;;;;;;0.20;0.20;;;;;;;;;;5072230;28;20037;-61
2022/09/25 05:51:22;;;;;;;0.50;0.30;;;;;;;;;;5087803;28;20128;-61
2022/09/25 05:53:47;;;;;;;0.30;0.20;;;;;;;;;;5056694;28;20095;-58
2022/09/25 05:56:13;;;;;;;0.30;0.20;;;;;;;;;;5079175;28;20032;-61
2022/09/25 05:58:38;;;;;;;0.20;0.20;;;;;;;;;;5088874;28;20048;-61
2022/09/25 06:01:04;;;;;;;0.30;0.30;;;;;;;;;;5083938;28;20322;-61
2022/09/25 06:03:30;;;;;;;0.20;0.20;;;;;;;;;;5080466;28;20052;-61
2022/09/25 06:05:58;;;;;;;0.30;0.30;;;;;;;;;;5068973;28;20084;-61
2022/09/25 06:08:24;;;;;;;0.20;0.20;;;;;;;;;;5070130;28;20052;-59
2022/09/25 06:10:53;;;;;;;0.47;0.20;;;;;;;;;;5087845;28;20062;-61
2022/09/25 06:13:19;;;;;;;0.30;0.30;;;;;;;;;;5076674;28;20102;-59
2022/09/25 06:15:44;;;;;;;0.10;0.10;;;;;;;;;;5078985;28;20036;-58
2022/09/25 06:18:09;;;;;;;0.20;0.20;;;;;;;;;;5088255;28;20438;-60
2022/09/25 06:20:35;;;;;;;0.20;0.20;;;;;;;;;;5076631;28;20049;-60
2022/09/25 06:23:00;;;;;;;0.28;0.28;;;;;;;;;;5051705;28;20135;-60
2022/09/25 06:25:27;;;;;;;0.20;0.20;;;;;;;;;;5077962;28;20082;-58
2022/09/25 06:27:53;;;;;;;0.10;0.10;;;;;;;;;;5086054;28;20051;-57
2022/09/25 06:30:19;;;;;;;0.22;0.22;;;;;;;;;;5072510;28;20044;-60
2022/09/25 06:32:44;;;;;;;0.20;0.20;;;;;;;;;;5080065;28;20398;-60
2022/09/25 06:35:09;;;;;;;0.30;0.30;;;;;;;;;;5081822;28;20071;-60
2022/09/25 06:37:35;;;;;;;0.30;0.20;;;;;;;;;;5084418;28;20043;-60
2022/09/25 06:40:00;;;;;;;0.13;0.13;;;;;;;;;;5081490;28;20643;-60
2022/09/25 06:42:26;;;;;;;0.10;0.10;;;;;;;;;;5084279;28;20365;-58
2022/09/25 06:44:51;;;;;;;0.10;0.10;;;;;;;;;;5070925;28;20047;-58
2022/09/25 06:47:16;;;;;;;0.10;0.10;;;;;;;;;;5076126;28;20175;-57
2022/09/25 06:49:41;;;;;;;0.13;0.10;;;;;;;;;;5083189;28;21549;-60
2022/09/25 06:52:07;;;;;;;0.20;0.20;;;;;;;;;;5067077;28;20050;-57
2022/09/25 06:54:32;;;;;;;0.30;0.20;;;;;;;;;;5061250;28;20190;-60
2022/09/25 06:56:57;;;;;;;0.40;0.20;;;;;;;;;;5067635;28;20037;-60
2022/09/25 06:59:24;;;;;;;0.10;0.10;;;;;;;;;;5060981;28;20282;-61
2022/09/25 07:01:49;;;;;;;0.45;0.30;;;;;;;;;;5078553;28;20113;-58
2022/09/25 07:04:15;;;;;;;0.10;0.10;;;;;;;;;;5071136;28;20519;-58
2022/09/25 07:06:40;;;;;;;0.20;0.20;;;;;;;;;;5059215;28;20378;-60
2022/09/25 07:09:05;;;;;;;0.30;0.20;;;;;;;;;;5073832;28;20439;-61
2022/09/25 07:11:30;;;;;;;0.20;0.20;;;;;;;;;;5085792;28;20266;-60
2022/09/25 07:13:57;;;;;;;0.50;0.27;;;;;;;;;;5079916;28;20036;-58
2022/09/25 07:16:23;;;;;;;0.17;0.10;;;;;;;;;;5088298;28;20044;-60
2022/09/25 07:18:50;;;;;;;0.20;0.20;;;;;;;;;;5073902;28;20488;-58
2022/09/25 07:21:16;;;;;;;0.20;0.20;;;;;;;;;;5081510;28;20053;-61
2022/09/25 07:23:42;;;;;;;0.20;0.20;;;;;;;;;;5088920;28;20487;-61
2022/09/25 07:26:09;;;;;;;0.20;0.20;;;;;;;;;;5090355;28;20044;-59
2022/09/25 07:28:35;;;;;;;0.20;0.20;;;;;;;;;;5082858;28;20094;-59
2022/09/25 07:31:20;;;;;;;0.10;0.10;;;;;;;;;;5077816;28;21000;-56
2022/09/25 07:33:46;;;;;;;0.20;0.17;;;;;;;;;;5082900;28;20040;-60
2022/09/25 07:36:11;;;;;;;0.20;0.20;;;;;;;;;;5085971;28;20381;-58
2022/09/25 07:38:37;;;;;;;0.10;0.10;;;;;;;;;;5079823;28;20052;-57
2022/09/25 07:41:05;;;;;;;0.10;0.10;;;;;;;;;;5064758;28;20354;-59
2022/09/25 07:43:31;;;;;;;0.10;0.10;;;;;;;;;;5077049;28;20063;-59
2022/09/25 07:45:57;;;;;;;0.20;0.20;;;;;;;;;;5063102;28;20090;-59
2022/09/25 07:48:22;;;;;;;0.20;0.20;;;;;;;;;;5070887;28;20052;-59
2022/09/25 07:50:48;;;;;;;0.20;0.20;;;;;;;;;;5090689;28;20142;-57
2022/09/25 07:53:14;;;;;;;0.30;0.20;;;;;;;;;;5084919;28;20064;-60
2022/09/25 07:55:40;;;;;;;0.20;0.13;;;;;;;;;;5073277;28;20075;-60
2022/09/25 07:58:05;;;;;;;0.20;0.20;;;;;;;;;;5088428;28;20092;-58
2022/09/25 08:00:30;;;;;;;0.20;0.20;;;;;;;;;;5059243;28;20052;-58
2022/09/25 08:02:56;;;;;;;0.22;0.22;;;;;;;;;;5078504;28;20078;-59
2022/09/25 08:05:22;;;;;;;0.10;0.10;;;;;;;;;;5072601;28;20052;-59
2022/09/25 08:07:47;;;;;;;0.20;0.20;;;;;;;;;;5084678;28;20040;-60
2022/09/25 08:10:12;;;;;;;0.20;0.20;;;;;;;;;;5088811;28;20052;-59
2022/09/25 08:12:39;;;;;;;0.10;0.10;;;;;;;;;;5074406;28;20535;-59
2022/09/25 08:15:05;;;;;;;0.20;0.20;;;;;;;;;;5082149;28;20040;-59
2022/09/25 08:17:30;;;;;;;0.40;0.20;;;;;;;;;;5090630;28;20101;-58
2022/09/25 08:19:55;;;;;;;0.20;0.20;;;;;;;;;;5077014;28;20044;-59
2022/09/25 08:22:21;;;;;;;0.20;0.20;;;;;;;;;;5073075;28;20278;-58
2022/09/25 08:24:47;;;;;;;0.10;0.10;;;;;;;;;;5088123;28;20650;-60
2022/09/25 08:27:12;;;;;;;0.50;0.20;;;;;;;;;;5076768;28;20060;-60
2022/09/25 08:29:38;;;;;;;0.27;0.20;;;;;;;;;;5081622;28;20032;-61
2022/09/25 08:32:03;;;;;;;0.33;0.20;;;;;;;;;;5076401;28;20143;-61
2022/09/25 08:34:28;;;;;;;0.20;0.20;;;;;;;;;;5067693;28;20135;-61
2022/09/25 08:36:53;;;;;;;0.30;0.20;;;;;;;;;;5077896;28;20286;-61
2022/09/25 08:39:19;;;;;;;0.10;0.10;;;;;;;;;;5080115;28;20051;-57
2022/09/25 08:41:44;;;;;;;0.13;0.10;;;;;;;;;;5073231;28;20068;-58
2022/09/25 08:44:24;;;;;;;0.20;0.20;;;;;;;;;;5079299;28;20094;-58
2022/09/25 08:50:00;;;;;;;0.20;0.20;;;;;;;;;;5077929;28;20530;-57
2022/09/25 08:52:25;;;;;;;0.30;0.30;;;;;;;;;;5083217;28;20535;-58
2022/09/25 08:54:54;;;;;;;0.20;0.20;;;;;;;;;;5089347;28;20242;-57
2022/09/25 08:57:22;;;;;;;0.20;0.20;;;;;;;;;;5090040;28;20036;-57
2022/09/25 08:59:50;;;;;;;0.20;0.20;;;;;;;;;;5085044;28;20141;-60
2022/09/25 09:02:17;;;;;;;0.20;0.20;;;;;;;;;;5089070;28;20044;-58
2022/09/25 09:04:48;;;;;;;0.10;0.10;;;;;;;;;;5046668;28;20058;-58
2022/09/25 09:07:19;;;;;;;0.20;0.20;;;;;;;;;;5069484;28;20083;-60
2022/09/25 09:09:50;;;;;;;0.20;0.20;;;;;;;;;;5064301;28;20444;-58
2022/09/25 09:12:17;;;;;;;0.30;0.30;;;;;;;;;;5070934;28;20116;-60
2022/09/25 09:14:44;;;;;;;0.20;0.20;;;;;;;;;;5072018;28;20516;-60
2022/09/25 09:17:31;;;;;;;0.30;0.20;;;;;;;;;;5075980;28;20087;-60
2022/09/25 09:20:11;;;;;;;0.20;0.20;;;;;;;;;;5077154;28;20043;-60
2022/09/25 09:22:39;;;;;;;0.25;0.25;;;;;;;;;;5081751;28;20036;-60
2022/09/25 09:25:23;;;;;;;0.30;0.30;;;;;;;;;;5067327;28;20118;-60
2022/09/25 09:28:14;;;;;;;0.30;0.30;;;;;;;;;;5074319;28;20037;-60
2022/09/25 09:30:46;;;;;;;0.20;0.20;;;;;;;;;;5073094;28;20086;-58
2022/09/25 09:33:33;;;;;;;0.25;0.25;;;;;;;;;;5081419;28;20029;-58
2022/09/25 09:36:05;;;;;;;0.20;0.20;;;;;;;;;;5074293;28;20056;-60
2022/09/25 09:38:45;;;;;;;0.20;0.20;;;;;;;;;;5067845;28;20055;-60
2022/09/25 09:41:20;;;;;;;0.22;0.22;;;;;;;;;;5078148;28;20359;-61
2022/09/25 09:43:56;;;;;;;0.30;0.30;;;;;;;;;;5082808;28;20051;-59
2022/09/25 09:46:44;;;;;;;0.20;0.20;;;;;;;;;;5087373;28;20048;-59
2022/09/25 09:49:32;;;;;;;0.30;0.30;;;;;;;;;;5066358;28;20048;-57
2022/09/25 09:52:01;;;;;;;0.57;0.40;;;;;;;;;;5080990;28;20043;-57
2022/09/25 09:54:34;;;;;;;0.30;0.22;;;;;;;;;;5068472;28;20074;-58
2022/09/25 09:57:01;;;;;;;0.20;0.20;;;;;;;;;;5088788;28;20131;-59
2022/09/25 09:59:30;;;;;;;0.30;0.30;;;;;;;;;;5082116;28;20090;-58
2022/09/25 10:02:00;;;;;;;0.30;0.30;;;;;;;;;;5069531;28;20127;-59
2022/09/25 10:04:28;;;;;;;0.20;0.20;;;;;;;;;;5075403;28;20055;-58
2022/09/25 10:06:59;;;;;;;0.40;0.30;;;;;;;;;;5079296;28;20167;-57
2022/09/25 10:09:26;;;;;;;0.20;0.20;;;;;;;;;;5061723;28;20126;-57
2022/09/25 10:11:58;;;;;;;0.50;0.30;;;;;;;;;;5067741;28;20150;-61
2022/09/25 10:14:25;;;;;;;0.20;0.20;;;;;;;;;;5078748;28;20110;-58
2022/09/25 10:16:51;;;;;;;0.20;0.20;;;;;;;;;;5068920;28;20127;-58
2022/09/25 10:19:18;;;;;;;0.32;0.30;;;;;;;;;;5088517;28;20127;-61
2022/09/25 10:21:49;;;;;;;0.10;0.10;;;;;;;;;;5072316;28;20044;-61
2022/09/25 10:24:33;;;;;;;0.10;0.10;;;;;;;;;;5059407;28;20045;-59
2022/09/25 10:27:18;;;;;;;0.30;0.30;;;;;;;;;;5073716;28;20058;-58
2022/09/25 10:29:43;;;;;;;0.20;0.20;;;;;;;;;;5059888;28;20473;-59
2022/09/25 10:32:10;;;;;;;0.30;0.20;;;;;;;;;;5064373;28;20120;-61
2022/09/25 10:34:36;;;;;;;0.38;0.38;;;;;;;;;;5070990;28;20088;-61
2022/09/25 10:37:13;;;;;;;0.13;0.13;;;;;;;;;;5060413;28;20062;-61
2022/09/25 10:39:39;;;;;;;0.30;0.30;;;;;;;;;;5079478;28;20056;-58
2022/09/25 10:42:24;;;;;;;0.30;0.30;;;;;;;;;;5079671;28;20051;-58
2022/09/25 10:44:50;;;;;;;0.20;0.20;;;;;;;;;;5076912;28;20111;-58
2022/09/25 10:50:13;;;;;;;0.20;0.20;;;;;;;;;;5068241;28;20117;-57
2022/09/25 10:52:49;;;;;;;0.30;0.30;;;;;;;;;;5081453;28;20097;-58
2022/09/25 10:55:33;;;;;;;0.40;0.30;;;;;;;;;;5077424;28;20131;-60
2022/09/25 10:58:11;;;;;;;0.35;0.30;;;;;;;;;;5077690;28;20097;-58
2022/09/25 11:00:42;;;;;;;0.15;0.15;;;;;;;;;;5060549;28;20060;-59
2022/09/25 11:03:18;;;;;;;0.22;0.22;;;;;;;;;;5077865;28;20407;-58
2022/09/25 11:05:48;;;;;;;0.30;0.30;;;;;;;;;;5076558;28;20060;-60
2022/09/25 11:08:15;;;;;;;0.55;0.40;;;;;;;;;;5073032;28;20048;-61
2022/09/25 11:10:49;;;;;;;0.20;0.20;;;;;;;;;;5068061;28;20120;-61
2022/09/25 11:13:26;;;;;;;0.32;0.32;;;;;;;;;;5078649;28;20142;-58
2022/09/25 11:15:55;;;;;;;0.38;0.30;;;;;;;;;;5076424;28;20044;-57
2022/09/25 11:18:34;;;;;;;0.20;0.20;;;;;;;;;;5070665;28;20055;-60
2022/09/25 11:21:05;;;;;;;0.30;0.20;;;;;;;;;;5087088;28;20036;-58
2022/09/25 11:23:42;;;;;;;0.30;0.30;;;;;;;;;;5086220;28;20048;-59
2022/09/25 11:26:07;;;;;;;0.20;0.20;;;;;;;;;;5089527;28;20097;-60
2022/09/25 11:28:36;;;;;;;0.43;0.30;;;;;;;;;;5078332;28;20044;-60
2022/09/25 11:31:10;;;;;;;0.28;0.28;;;;;;;;;;5088810;28;20036;-58
2022/09/25 11:33:36;;;;;;;0.30;0.30;;;;;;;;;;5085295;28;20128;-60
2022/09/25 11:36:03;;;;;;;0.20;0.20;;;;;;;;;;5085567;28;20040;-61
2022/09/25 11:41:42;;;;;;;0.70;0.50;;;;;;;;;;5085277;28;20416;-60
2022/09/25 11:44:17;;;;;;;0.20;0.20;;;;;;;;;;5078183;28;20043;-58
2022/09/25 11:47:00;;;;;;;0.30;0.30;;;;;;;;;;5082132;28;20070;-58
2022/09/25 11:49:34;;;;;;;0.25;0.25;;;;;;;;;;5061088;28;20053;-58
2022/09/25 11:52:18;;;;;;;0.20;0.20;;;;;;;;;;5073698;28;20484;-58
2022/09/25 11:55:02;;;;;;;0.25;0.25;;;;;;;;;;5075426;28;20044;-60
2022/09/25 11:57:52;;;;;;;0.10;0.10;;;;;;;;;;5091061;28;20048;-59
2022/09/25 12:00:24;;;;;;;0.28;0.20;;;;;;;;;;5078167;28;20132;-58
2022/09/25 12:03:01;;;;;;;0.20;0.20;;;;;;;;;;5086955;28;20078;-60
2022/09/25 12:05:29;;;;;;;0.30;0.30;;;;;;;;;;5085879;28;20049;-60
2022/09/25 12:08:14;;;;;;;0.30;0.30;;;;;;;;;;5068454;28;20415;-60
2022/09/25 12:10:39;;;;;;;0.28;0.28;;;;;;;;;;5074769;28;20044;-60
2022/09/25 12:13:15;;;;;;;0.30;0.30;;;;;;;;;;5075069;28;20412;-61
2022/09/25 12:15:43;;;;;;;0.32;0.30;;;;;;;;;;5085136;28;20063;-60
2022/09/25 12:18:09;;;;;;;0.30;0.30;;;;;;;;;;5079115;28;20071;-60
2022/09/25 12:20:43;;;;;;;0.13;0.13;;;;;;;;;;5081722;28;20071;-60
2022/09/25 12:23:14;;;;;;;0.30;0.30;;;;;;;;;;5084958;28;20056;-58
2022/09/25 12:25:40;;;;;;;0.20;0.20;;;;;;;;;;5058303;28;20147;-58
2022/09/25 12:28:08;;;;;;;0.25;0.25;;;;;;;;;;5062605;28;20139;-60
2022/09/25 12:30:46;;;;;;;0.30;0.30;;;;;;;;;;5089773;28;20044;-61
2022/09/25 12:33:19;;;;;;;0.30;0.30;;;;;;;;;;5080601;28;20047;-57
2022/09/25 12:36:02;;;;;;;0.20;0.20;;;;;;;;;;5076522;28;20043;-58
2022/09/25 12:38:42;;;;;;;0.32;0.28;;;;;;;;;;5089805;28;20121;-58
2022/09/25 12:41:17;;;;;;;0.35;0.30;;;;;;;;;;5066867;28;20044;-58
2022/09/25 12:44:00;;;;;;;0.28;0.28;;;;;;;;;;5075541;28;20131;-60
2022/09/25 12:46:38;;;;;;;0.20;0.20;;;;;;;;;;5086443;28;20094;-60
2022/09/25 12:49:03;;;;;;;0.20;0.20;;;;;;;;;;5074247;28;20428;-57
2022/09/25 12:51:33;;;;;;;0.30;0.30;;;;;;;;;;5066512;28;20533;-57
2022/09/25 12:54:05;;;;;;;0.20;0.20;;;;;;;;;;5069072;28;20260;-60
2022/09/25 12:56:33;;;;;;;0.30;0.30;;;;;;;;;;5076680;28;20171;-60
2022/09/25 12:59:14;;;;;;;0.32;0.30;;;;;;;;;;5075744;28;20044;-60
2022/09/25 13:01:52;;;;;;;0.30;0.30;;;;;;;;;;5065084;28;20040;-58
2022/09/25 13:04:41;;;;;;;0.20;0.20;;;;;;;;;;5076341;28;20103;-60
2022/09/25 13:07:12;;;;;;;0.20;0.20;;;;;;;;;;4966043;28;20046;-58
2022/09/25 13:09:47;;;;;;;0.50;0.40;;;;;;;;;;4968065;28;20514;-58
2022/09/25 13:12:15;;;;;;;0.20;0.20;;;;;;;;;;4966293;28;20486;-58
2022/09/25 13:14:45;;;;;;;0.22;0.20;;;;;;;;;;4968784;28;20174;-60
2022/09/25 13:17:11;;;;;;;0.30;0.30;;;;;;;;;;4968417;28;20047;-60
2022/09/25 13:19:37;;;;;;;0.30;0.30;;;;;;;;;;4964155;28;20046;-60
2022/09/25 13:22:03;;;;;;;0.20;0.20;;;;;;;;;;4962407;28;20467;-60
2022/09/25 13:24:29;;;;;;;0.30;0.30;;;;;;;;;;4957175;28;20098;-58
2022/09/25 13:26:57;;;;;;;0.20;0.20;;;;;;;;;;4968116;28;20507;-58
2022/09/25 13:29:26;;;;;;;0.20;0.20;;;;;;;;;;4968425;28;20142;-60
2022/09/25 13:32:11;;;;;;;0.30;0.30;;;;;;;;;;4968293;28;20046;-58
2022/09/25 13:34:38;;;;;;;0.25;0.25;;;;;;;;;;4965082;28;20055;-61
2022/09/25 13:37:04;;;;;;;0.28;0.28;;;;;;;;;;4960055;28;20038;-60
2022/09/25 13:42:23;;;;;;;0.28;0.28;;;;;;;;;;4968602;28;20581;-58
2022/09/25 13:44:51;;;;;;;0.30;0.30;;;;;;;;;;5047248;28;20445;-58
2022/09/25 13:47:28;;;;;;;0.30;0.30;;;;;;;;;;5069049;28;20048;-60
2022/09/25 13:49:54;;;;;;;0.30;0.30;;;;;;;;;;5084827;28;20096;-61
2022/09/25 13:52:29;;;;;;;0.40;0.30;;;;;;;;;;5088800;28;20040;-59
2022/09/25 13:55:12;;;;;;;0.30;0.30;;;;;;;;;;5083832;28;20051;-61
2022/09/25 13:57:53;;;;;;;0.35;0.30;;;;;;;;;;5069256;28;20064;-61
2022/09/25 14:00:19;;;;;;;0.20;0.20;;;;;;;;;;5088010;28;20040;-58
2022/09/25 14:02:45;;;;;;;0.20;0.20;;;;;;;;;;5088772;28;20032;-58
2022/09/25 14:05:15;;;;;;;0.30;0.30;;;;;;;;;;5065821;28;20460;-61
2022/09/25 14:07:41;;;;;;;0.30;0.30;;;;;;;;;;5074002;28;20067;-59
2022/09/25 14:10:09;;;;;;;0.20;0.20;;;;;;;;;;5079861;28;20488;-58
2022/09/25 14:12:41;;;;;;;0.25;0.25;;;;;;;;;;5085914;28;20066;-61
2022/09/25 14:15:12;;;;;;;0.30;0.30;;;;;;;;;;5080482;28;20055;-59
2022/09/25 14:17:40;;;;;;;0.40;0.32;;;;;;;;;;5068331;28;20558;-58
2022/09/25 14:20:17;;;;;;;0.30;0.30;;;;;;;;;;5087015;28;20040;-58
2022/09/25 14:22:45;;;;;;;0.30;0.30;;;;;;;;;;5081986;28;20048;-58
2022/09/25 14:25:31;;;;;;;0.30;0.30;;;;;;;;;;5070908;28;20504;-60
2022/09/25 14:27:57;;;;;;;0.20;0.20;;;;;;;;;;5085796;28;20040;-58
2022/09/25 14:30:28;;;;;;;0.30;0.30;;;;;;;;;;5076440;28;20462;-57
2022/09/25 14:33:19;;;;;;;0.40;0.30;;;;;;;;;;5079286;28;20442;-57
2022/09/25 14:35:46;;;;;;;0.30;0.30;;;;;;;;;;5075335;28;20032;-60
2022/09/25 14:38:11;;;;;;;0.30;0.30;;;;;;;;;;5085924;28;20093;-60
2022/09/25 14:41:21;;;;;;;0.30;0.30;;;;;;;;;;5083525;28;20037;-60
2022/09/25 14:43:59;;;;;;;0.20;0.20;;;;;;;;;;5062041;28;20067;-60
2022/09/25 14:46:24;;;;;;;0.25;0.20;;;;;;;;;;5060497;28;20053;-60
2022/09/25 14:48:55;;;;;;;0.25;0.25;;;;;;;;;;5046659;28;20049;-60
2022/09/25 14:51:22;;;;;;;0.40;0.40;;;;;;;;;;5043180;28;20198;-60
2022/09/25 14:53:53;;;;;;;0.30;0.30;;;;;;;;;;5056418;28;20048;-60
2022/09/25 14:56:19;;;;;;;0.30;0.30;;;;;;;;;;5065724;28;20049;-60
2022/09/25 14:58:49;;;;;;;0.43;0.40;;;;;;;;;;5063429;28;20048;-59
2022/09/25 15:01:18;;;;;;;0.40;0.30;;;;;;;;;;5068332;28;20412;-60
2022/09/25 15:03:46;;;;;;;0.30;0.30;;;;;;;;;;5043887;28;20528;-61
2022/09/25 15:06:11;;;;;;;0.20;0.20;;;;;;;;;;5061920;28;20095;-60
2022/09/25 15:08:37;;;;;;;0.30;0.30;;;;;;;;;;5063995;28;20469;-58
2022/09/25 15:11:11;;;;;;;0.30;0.30;;;;;;;;;;5048202;28;20540;-60
2022/09/25 15:13:36;;;;;;;0.40;0.40;;;;;;;;;;5060039;28;20056;-61
2022/09/25 15:18:49;;;;;;;0.30;0.30;;;;;;;;;;5086839;28;20051;-60